5 day graph

You are here

Hive Data

Page: 1 of 16645  Records: 998690

Row Date Time Hive Temp Hive Humidity Outside Temp Outside Humidity Bottom Board Temp Outside Wall Temp Electronics Temp Light Levels inHG Fan Heat Cover Notes
Clear Sorted By: Cover descending, Bottom Board Temp ascending, Row descending
View 428942 Apr 5 2015 10:17:00am 89.24 45 56.84 50 46.4 68.9 78.8 184 28.99 0 0 1 NA
View 428947 Apr 5 2015 10:22:02am 78.26 24 57.74 51 46.85 68.9 77 193 29 0 0 1 NA
View 428946 Apr 5 2015 10:21:02am 81.14 23 57.56 50 46.85 68 75.2 192 29 0 0 1 NA
View 428945 Apr 5 2015 10:20:01am 83.48 27 57.2 52 46.85 67.55 75.2 187 29 0 0 1 NA
View 428944 Apr 5 2015 10:19:01am 85.46 24 57.02 51 46.85 68 75.2 185 28.99 0 0 1 NA
View 428943 Apr 5 2015 10:18:01am 87.98 28 56.84 52 46.85 67.1 75.2 188 28.99 0 0 1 NA
View 428948 Apr 5 2015 10:23:02am 75.92 28 58.1 49 47.3 68 75.2 193 28.99 0 0 1 NA
View 350892 Feb 4 2015 2:56:42pm 72.32 55 50.9 72 50.9 53.15 62.6 237 29.14 0 0 1 NA
View 292614 Dec 19 2014 3:02:36pm 63.32 64 54.86 53 53.6 58.1 69.8 239 29.23 0 0 1 NA
View 286339 Dec 14 2014 2:40:11pm 66.2 33 76.1 24 57.65 79.7 77 219 29.29 0 0 1 NA
View 286338 Dec 14 2014 2:39:10pm 68.36 76 77.9 24 57.65 81.5 78.8 211 29.29 0 0 1 NA
View 286337 Dec 14 2014 2:37:53pm 68.18 77 78.08 24 57.65 83.75 78.8 210 29.29 0 0 1 NA
View 360211 Feb 11 2015 12:02:41pm 79.52 47 58.64 67 58.55 61.7 69.8 223 29.44 0 1 1 NA
View 269266 Dec 2 2014 3:59:46pm 64.94 63 45.14 33 59.45 49.55 69.8 247 29.25 0 0 1 NA
View 367612 Feb 18 2015 3:45:02pm 69.62 37 56.12 58 59.9 57.88 66.2 249 29.51 0 0 1 NA
View 367611 Feb 18 2015 3:44:01pm 70.7 36 56.3 57 59.9 58.1 66.2 249 29.51 0 0 1 NA
View 367610 Feb 18 2015 3:43:01pm 71.96 36 56.3 57 59.9 58.44 66.2 247 29.51 0 0 1 NA
View 367609 Feb 18 2015 3:42:00pm 73.22 35 56.3 58 59.9 58.32 66.2 246 29.51 0 0 1 NA
View 367608 Feb 18 2015 3:41:00pm 74.48 35 56.48 57 59.9 58.32 66.2 245 29.51 0 0 1 NA
View 367607 Feb 18 2015 3:39:59pm 75.92 34 56.48 57 59.9 58.21 66.2 245 29.51 0 0 1 NA
View 367606 Feb 18 2015 3:38:59pm 77.54 33 56.48 57 59.9 58.55 69.8 242 29.51 0 0 1 NA
View 367605 Feb 18 2015 3:37:58pm 79.34 31 56.66 57 59.9 58.44 69.8 239 29.51 0 0 1 NA
View 367604 Feb 18 2015 3:36:58pm 83.66 41 57.02 57 59.9 59.34 69.8 229 29.51 0 0 1 NA
View 367603 Feb 18 2015 3:35:40pm 83.84 43 57.02 57 59.9 59.34 71.6 229 29.5 0 0 1 NA
View 269264 Dec 2 2014 3:58:06pm 64.76 61 45.32 33 59.9 53.15 73.4 235 29.25 0 0 1 NA
View 286340 Dec 14 2014 2:41:45pm 66.38 33 75.74 24 61.25 77 77 219 29.29 0 1 1 NA
View 466139 May 2 2015 10:30:14am 92.84 51 62.96 51 61.7 66.65 82.4 179 29.33 0 0 1 NA
View 466138 May 2 2015 10:28:56am 92.84 49 62.96 50 61.7 66.65 82.4 177 29.32 0 0 1 Quick inspection with Dan (Fence Repair person)and his wife. 2 frames fully drawn of foundationless and sever frames getting worked on. So far so straight.
View 443659 Apr 15 2015 5:01:12pm 74.48 32 60.26 37 61.7 59.45 73.4 205 29.73 0 0 1 NA
View 443658 Apr 15 2015 5:00:12pm 75.74 26 60.26 39 61.7 60.35 77 198 29.73 0 0 1 NA
View 443657 Apr 15 2015 4:59:11pm 77.54 25 60.08 39 61.7 60.8 77 196 29.73 0 0 1 NA
View 443656 Apr 15 2015 4:58:11pm 79.34 24 59.72 39 61.7 61.25 77 193 29.73 0 0 1 NA
View 443655 Apr 15 2015 4:57:10pm 81.5 26 59.36 40 61.7 62.15 80.6 189 29.73 0 0 1 NA
View 443654 Apr 15 2015 4:56:10pm 84.2 25 58.64 40 61.7 63.05 84.2 178 29.73 0 0 1 NA
View 443653 Apr 15 2015 4:55:10pm 87.26 27 58.28 41 61.7 64.4 86 171 29.73 0 0 1 NA
View 443652 Apr 15 2015 4:54:09pm 91.22 56 58.1 39 61.7 65.75 89.6 157 29.73 0 0 1 NA
View 443651 Apr 15 2015 4:52:52pm 91.22 55 58.1 39 61.7 69.35 91.4 156 29.73 0 0 1 Quick inspection. Kimmi's has exceptional amount of drones. No queen cells in any hive. Kimmi's is backfilling heavily. New hive has released the queen. Did not look any further.
View 466146 May 2 2015 10:35:55am 78.8 30 64.94 48 62.15 69.8 78.8 207 29.33 0 0 1 NA
View 466145 May 2 2015 10:34:55am 79.7 29 64.58 52 62.15 69.35 78.8 204 29.33 0 0 1 NA
View 466144 May 2 2015 10:33:54am 82.04 26 64.22 48 62.15 68.9 78.8 203 29.33 0 0 1 NA
View 466142 May 2 2015 10:33:15am 84.02 26 64.04 49 62.15 68.9 77 199 29.33 0 0 1 NA
View 466141 May 2 2015 10:32:14am 86.72 27 63.68 50 62.15 68.45 77 199 29.33 0 0 1 NA
View 466140 May 2 2015 10:31:14am 88.7 26 63.14 51 62.15 67.55 78.8 199 29.33 0 0 1 NA
View 466153 May 2 2015 10:42:57am 75.92 31 64.4 46 62.6 70.25 71.6 233 29.33 0 0 1 NA
View 466152 May 2 2015 10:41:57am 76.64 33 64.94 48 62.6 70.7 73.4 224 29.33 0 0 1 NA
View 466151 May 2 2015 10:40:57am 76.64 32 65.12 47 62.6 71.15 73.4 216 29.33 0 0 1 NA
View 466150 May 2 2015 10:39:56am 76.64 31 65.12 46 62.6 70.25 73.4 217 29.33 0 0 1 NA
View 466149 May 2 2015 10:38:56am 77.36 30 65.3 46 62.6 70.25 75.2 214 29.33 0 0 1 NA
View 466148 May 2 2015 10:37:56am 77.54 33 65.12 47 62.6 70.25 75.2 212 29.33 0 0 1 NA
View 466147 May 2 2015 10:36:55am 77.9 30 65.3 48 62.6 70.25 77 207 29.33 0 0 1 NA
View 507054 Jun 3 2015 4:25:07pm 92.48 52 63.86 66 63.05 69.35 84.2 189 29.31 0 0 1 NA
View 507053 Jun 3 2015 4:23:49pm 92.48 51 63.86 66 63.05 70.7 86 189 29.31 0 0 1 Added honey super. Now 5 medium boxes. Added honey super to Kimmi's and is also 5 boxes. Added 3rd medium to Pink hive. Replaced hive bodies(2) on swarm hive. Removed one box from Kimmi Nuc split (found queen) and this hive needs some stores.
View 269269 Dec 2 2014 4:02:22pm 65.12 58 44.78 34 63.05 46.85 59 255 29.26 0 1 1 NA
View 496916 May 25 2015 4:59:34pm 84.74 32 61.88 64 63.95 64.85 82.4 204 29.28 0 0 1 NA
View 496915 May 25 2015 4:58:34pm 87.44 30 61.88 65 63.95 65.3 84.2 199 29.28 0 0 1 NA
View 496914 May 25 2015 4:57:34pm 91.94 55 61.7 65 63.95 66.2 84.2 191 29.28 0 0 1 NA
View 496913 May 25 2015 4:56:16pm 92.12 56 61.7 65 63.95 67.55 87.8 190 29.28 0 0 1 Split this hive and Kimmi's Hive. Moved queens to Nucs for brood break. Letting them build a new queen. 8 hives on the property.
View 553191 Jul 9 2015 8:29:24am 85.46 38 72.68 64 64.4 73.85 86 195 29.05 0 0 1 NA
View 553190 Jul 9 2015 8:28:24am 87.98 54 71.96 63 64.4 73.85 86 189 29.05 0 0 1 NA
View 553189 Jul 9 2015 8:27:06am 87.98 54 71.96 63 64.4 73.4 86 188 29.02 0 0 1 NA